Flight Track Log - Related Links

Times and Time Zones

All times are in EDT time to prevent confusion due to time zone crossing. See the N310VP flight status page for this flight to view local times or setup timezone preferences in your user account.

Time Position Orientation Groundspeed Altitude Reporting Facility
EDT Latitude Longitude Course Direction KTS MPH feet Rate Location/Type
Sun 03:31:46 PM 38.9808 -82.8556 352° North 162 186 4,000  Level Indianapolis Center
Sun 03:32:48 PM 39.0278 -82.8633 353° North 169 194 4,000  Level Indianapolis Center
Sun 03:33:50 PM 39.0761 -82.8714 353° North 173 199 4,000  Level Indianapolis Center
Sun 03:34:52 PM 39.1242 -82.8806 352° North 174 200 4,000  Level Indianapolis Center
Sun 03:35:36 PM 39.1625 -82.8908 348° North 174 200 4,000  Level Indianapolis Center
Sun 03:36:37 PM 39.2100 -82.8989 353° North 172 198 4,000  Level Indianapolis Center
Sun 03:37:58 PM 39.2708 -82.9100 352° North 172 198 4,000  Level Indianapolis Center
Sun 03:38:38 PM 39.3092 -82.9181 351° North 169 194 4,000  Level Indianapolis Center
Sun 03:39:33 PM 39.3525 -82.9283 350° North 172 198 4,000  Level Indianapolis Center
Sun 03:40:34 PM 39.4000 -82.9364 353° North 174 200 4,000  Level Indianapolis Center
Sun 03:41:04 PM 39.4217 -82.9406 352° North 173 199 4,000  Level Indianapolis Center
Sun 03:41:35 PM 39.4475 -82.9447 353° North 173 199 4,000  Level Indianapolis Center
Sun 03:42:06 PM 39.4697 -82.9494 351° North 172 198 4,000  Level Indianapolis Center
Sun 03:42:36 PM 39.4950 -82.9553 350° North 175 201 4,000  Level Indianapolis Center
Sun 03:43:07 PM 39.5186 -82.9592 353° North 174 200 4,000  Level Indianapolis Center
Sun 03:43:37 PM 39.5447 -82.9639 352° North 176 203 4,000  Level Indianapolis Center
Sun 03:44:09 PM 39.5667 -82.9681 352° North 174 200 4,000  Level Indianapolis Center
Sun 03:45:11 PM 39.6136 -82.9750 353° North 171 197 4,000  Level Indianapolis Center
Sun 03:46:13 PM 39.6606 -82.9550 18° North 173 199 4,000 48 Level Indianapolis Center
Sun 03:47:15 PM 39.7069 -82.9383 15° North 174 200 4,100  Climbing Indianapolis Center
Sun 03:48:17 PM 39.7617 -82.9214 13° North 173 199 4,000 -48 Descending Indianapolis Center
Sun 03:49:19 PM 39.8081 -82.9056 15° North 171 197 4,000  Level Indianapolis Center
Sun 03:50:21 PM 39.8544 -82.8897 15° North 171 197 4,000  Level Indianapolis Center
Sun 03:51:23 PM 39.9022 -82.8789 10° North 172 198 4,000  Level Indianapolis Center
Sun 03:52:25 PM 39.9489 -82.8633 14° North 175 201 4,000  Level Indianapolis Center
Sun 03:53:26 PM 39.9978 -82.8328 26° Northeast 175 201 4,000  Level Indianapolis Center
Sun 03:54:28 PM 40.0392 -82.8386 354° North 175 201 4,000  Level Indianapolis Center
Sun 03:55:30 PM 40.0889 -82.8611 341° North 183 211 4,000 -339 Level Indianapolis Center
Sun 03:56:32 PM 40.0875 -82.9183 268° West 162 186 3,300 -774 Descending Indianapolis Center
Sun 03:57:34 PM 40.0825 -82.9744 263° West 156 180 2,400 -629 Descending Indianapolis Center
Sun 03:58:36 PM 40.0808 -83.0267 268° West 148 170 2,000 -194 Descending Indianapolis Center
Sun 03:59:38 PM 40.0914 -83.0169 35° Northeast 147 169 2,000 -290 Level Indianapolis Center
Sun 04:00:40 PM 40.0936 -83.0528 275° West 117 135 1,400 -341 Descending Indianapolis Center
Sun 04:01:41 PM 40.0892 -83.0797 258° West 109 125 1,300 -98 Descending Indianapolis Center
Sun 04:03:00 PM 40.0798 -83.0732 180° South  Level Estimated

Login

Don't have an account? Register now (free) for customized features, flight alerts, and more!